KBBG

Branson Airport

Branson, Missouri, USA
METAR KBBG 221750Z 05004KT 10SM FEW007 BKN015 OVC070 12/12 A2996
Observed Flight Rules
Apr-22 @ 17:50 UTC (29 minutes ago) Marginal Visual Flight Rules
Wind Visibility Clouds
50° at 4 knots 10 miles
  • Few at 700' AGL
  • Broken at 1,500' AGL
  • Overcast at 7,000' AGL
Temperatures Readings
Current 12°C / 54°F
Dewpoint 12°C / 54°F
Humidity 100%
Altimeter 29.96" Hg
Pressure 1015 hPa
Elevation 397
METAR KBBG 221750Z 05004KT 10SM FEW007 BKN015 OVC070 12/12 A2996
Observed Flight Rules
Apr-22 @ 17:50 UTC
(29 minutes ago)
MVFR
Wind Visibility
50° at 4 knots 10 miles
Clouds
  • Few at 700' AGL
  • Broken at 1,500' AGL
  • Overcast at 7,000' AGL
Temperature Dewpoint
12°C / 54°F 12°C / 54°F
Humidity Altimeter Pressure
100% 29.96" Hg 1015 hPa